Terminal Aerodrome Forecast
Issued by NWS

Home | Current Version | Previous Version | Text Only | Print | Product List | Glossary On
Versions: 1 2 3 4 5 6 7 8 9 10 11 12 13 14 15 16
000
FTUS44 KTSA 191800 AAA
TAFRVS
TAF AMD
KRVS 191801Z 1918/2018 16003KT P6SM OVC009
     FM191900 16007KT P6SM BKN015
     FM192000 16007KT P6SM SCT025
     FM200100 15005KT P6SM FEW250
      TEMPO 2009/2013 4SM BR
     FM201500 19008KT P6SM BKN050=

USA.gov is the U.S. government's official web portal to all federal, state and local government web resources and services.